createdAt,value
2022-12-25T00:00:00.086Z,33.88
2022-12-25T00:02:27.188Z,31.90
2022-12-25T00:04:54.065Z,34.65
2022-12-25T00:07:20.990Z,38.30
2022-12-25T00:09:47.793Z,31.75
2022-12-25T00:12:14.685Z,46.00
2022-12-25T00:14:41.468Z,33.17
2022-12-25T00:17:08.557Z,34.88
2022-12-25T00:19:35.856Z,38.85
2022-12-25T00:22:02.723Z,29.73
2022-12-25T00:24:29.510Z,43.70
2022-12-25T00:26:56.355Z,34.42
2022-12-25T00:29:23.164Z,34.80
2022-12-25T00:31:50.258Z,31.98
2022-12-25T00:34:17.147Z,27.90
2022-12-25T00:36:43.946Z,23.05
2022-12-25T00:39:10.832Z,22.60
2022-12-25T00:41:56.223Z,19.13
2022-12-25T00:44:23.092Z,20.08
2022-12-25T00:46:50.236Z,30.33
2022-12-25T00:49:17.222Z,32.28
2022-12-25T00:51:44.201Z,32.95
2022-12-25T00:54:11.002Z,28.35
2022-12-25T00:56:37.869Z,23.50
2022-12-25T00:59:04.719Z,27.67
2022-12-25T01:01:32.165Z,28.15
2022-12-25T01:04:00.015Z,30.83
2022-12-25T01:06:34.015Z,22.73
2022-12-25T01:09:19.674Z,17.30
2022-12-25T01:11:50.533Z,20.52
2022-12-25T01:14:25.468Z,23.08
2022-12-25T01:16:52.446Z,28.95
2022-12-25T01:19:19.348Z,25.98
2022-12-25T01:21:46.194Z,27.17
2022-12-25T01:24:13.040Z,24.15
2022-12-25T01:26:39.920Z,15.65
2022-12-25T01:29:06.748Z,20.58
2022-12-25T01:31:33.623Z,18.05
2022-12-25T01:34:00.525Z,16.85
2022-12-25T01:36:27.428Z,18.88
2022-12-25T01:38:54.933Z,18.40
2022-12-25T01:41:23.927Z,18.00
2022-12-25T01:43:58.765Z,14.35
2022-12-25T01:46:25.706Z,16.63
2022-12-25T01:48:53.914Z,16.85
2022-12-25T01:51:30.801Z,13.85
2022-12-25T01:54:01.224Z,11.57
2022-12-25T01:56:28.996Z,14.07
2022-12-25T01:58:57.000Z,16.38
2022-12-25T02:01:23.955Z,11.52
2022-12-25T02:03:55.593Z,17.73
2022-12-25T02:06:22.536Z,13.85
2022-12-25T02:08:49.875Z,22.75
2022-12-25T02:11:36.687Z,26.52
2022-12-25T02:14:03.647Z,14.07
2022-12-25T02:16:35.032Z,12.50
2022-12-25T02:19:46.066Z,11.75
2022-12-25T02:22:48.278Z,16.80
2022-12-25T02:25:36.175Z,21.00
2022-12-25T02:28:27.647Z,21.30
2022-12-25T02:31:03.219Z,17.45
2022-12-25T02:33:52.486Z,15.20
2022-12-25T02:36:23.519Z,18.13
2022-12-25T02:39:13.194Z,19.60
2022-12-25T02:41:43.551Z,16.17
2022-12-25T02:44:33.576Z,16.98
2022-12-25T02:47:20.036Z,20.88
2022-12-25T02:50:19.537Z,15.27
2022-12-25T02:53:05.981Z,23.95
2022-12-25T02:55:54.468Z,21.75
2022-12-25T02:58:41.287Z,19.23
2022-12-25T03:01:34.279Z,18.65
2022-12-25T03:04:25.052Z,14.50
2022-12-25T03:07:06.476Z,16.08
2022-12-25T03:10:17.903Z,14.27
2022-12-25T03:12:53.803Z,18.90
2022-12-25T03:15:39.587Z,14.05
2022-12-25T03:18:12.612Z,15.00
2022-12-25T03:23:49.927Z,20.33
2022-12-25T03:26:36.145Z,14.65
2022-12-25T03:29:03.531Z,6.25
2022-12-25T03:31:49.252Z,7.38
2022-12-25T03:35:01.188Z,11.13
2022-12-25T03:37:39.194Z,11.93
2022-12-25T03:40:50.519Z,13.52
2022-12-25T03:43:32.553Z,19.55
2022-12-25T03:46:05.380Z,13.32
2022-12-25T03:48:53.775Z,9.57
2022-12-25T03:51:43.490Z,10.80
2022-12-25T03:54:30.120Z,11.07
2022-12-25T03:57:16.111Z,12.77
2022-12-25T04:00:01.497Z,15.07
2022-12-25T04:02:47.166Z,11.75
2022-12-25T04:05:32.509Z,12.23
2022-12-25T04:08:17.795Z,16.45
2022-12-25T04:11:03.227Z,16.08
2022-12-25T04:13:48.808Z,18.02
2022-12-25T04:16:34.474Z,18.02
2022-12-25T04:19:19.875Z,12.02
2022-12-25T04:22:05.451Z,12.68
2022-12-25T04:24:51.098Z,10.20
2022-12-25T04:27:36.717Z,9.75
2022-12-25T04:30:22.729Z,17.08
2022-12-25T04:33:08.077Z,12.88
2022-12-25T04:35:53.656Z,18.08
2022-12-25T04:38:21.054Z,17.65
2022-12-25T04:40:48.003Z,14.60
2022-12-25T04:43:14.887Z,14.57
2022-12-25T04:45:42.567Z,14.27
2022-12-25T04:48:09.370Z,13.60
2022-12-25T04:50:36.231Z,9.27
2022-12-25T04:53:03.041Z,15.52
2022-12-25T04:55:29.848Z,13.75
2022-12-25T04:57:56.627Z,11.90
2022-12-25T05:00:23.558Z,11.77
2022-12-25T05:02:50.538Z,12.18
2022-12-25T05:05:17.518Z,16.10
2022-12-25T05:07:44.346Z,20.25
2022-12-25T05:10:11.549Z,14.35
2022-12-25T05:12:38.578Z,17.52
2022-12-25T05:15:05.916Z,18.23
2022-12-25T05:17:32.750Z,12.98
2022-12-25T05:19:59.634Z,13.50
2022-12-25T05:22:26.537Z,14.20
2022-12-25T05:24:53.370Z,14.73
2022-12-25T05:27:20.712Z,17.13
2022-12-25T05:29:47.705Z,13.05
2022-12-25T05:32:14.535Z,17.38
2022-12-25T05:34:44.400Z,12.65
2022-12-25T05:37:11.410Z,12.45
2022-12-25T05:39:38.194Z,14.40
2022-12-25T05:42:05.034Z,7.75
2022-12-25T05:44:31.836Z,9.82
2022-12-25T05:46:58.724Z,6.85
2022-12-25T05:49:25.623Z,11.80
2022-12-25T05:51:52.686Z,18.35
2022-12-25T05:54:25.535Z,9.55
2022-12-25T05:56:52.365Z,9.95
2022-12-25T05:59:19.436Z,10.02
2022-12-25T06:01:49.500Z,7.40
2022-12-25T06:04:16.418Z,20.77
2022-12-25T06:06:43.354Z,9.13
2022-12-25T06:09:12.252Z,13.50
2022-12-25T06:11:39.763Z,10.73
2022-12-25T06:14:06.715Z,10.68
2022-12-25T06:16:38.006Z,10.95
2022-12-25T06:19:05.624Z,7.95
2022-12-25T06:21:32.683Z,9.00
2022-12-25T06:24:02.686Z,14.48
2022-12-25T06:26:29.622Z,7.43
2022-12-25T06:28:56.445Z,9.68
2022-12-25T06:31:24.176Z,9.38
2022-12-25T06:33:51.206Z,8.48
2022-12-25T06:36:22.608Z,4.88
2022-12-25T06:38:49.919Z,6.43
2022-12-25T06:41:25.362Z,7.28
2022-12-25T06:44:06.160Z,5.60
2022-12-25T06:46:33.012Z,4.95
2022-12-25T06:49:00.267Z,4.28
2022-12-25T06:51:36.121Z,2.83
2022-12-25T06:54:06.031Z,10.30
2022-12-25T06:56:33.615Z,5.63
2022-12-25T06:59:11.991Z,5.63
2022-12-25T07:01:48.327Z,6.55
2022-12-25T07:04:28.467Z,11.55
2022-12-25T07:06:55.326Z,8.95
2022-12-25T07:09:22.129Z,9.10
2022-12-25T07:11:49.137Z,9.70
2022-12-25T07:14:24.213Z,14.15
2022-12-25T07:16:51.678Z,8.50
2022-12-25T07:19:19.262Z,7.72
2022-12-25T07:21:46.361Z,8.57
2022-12-25T07:24:18.804Z,7.13
2022-12-25T07:26:45.625Z,6.65
2022-12-25T07:29:12.470Z,5.35
2022-12-25T07:31:39.321Z,10.82
2022-12-25T07:34:08.894Z,8.05
2022-12-25T07:36:35.844Z,8.25
2022-12-25T07:39:02.653Z,7.70
2022-12-25T07:41:29.471Z,12.02
2022-12-25T07:43:56.344Z,11.68
2022-12-25T07:46:23.740Z,11.10
2022-12-25T07:48:52.709Z,15.10
2022-12-25T07:51:20.902Z,17.08
2022-12-25T07:53:48.172Z,8.93
2022-12-25T07:56:17.954Z,8.23
2022-12-25T07:58:45.460Z,9.57
2022-12-25T08:01:15.074Z,10.65
2022-12-25T08:03:42.131Z,8.70
2022-12-25T08:06:10.605Z,16.85
2022-12-25T08:08:38.357Z,13.68
2022-12-25T08:11:07.648Z,8.32
2022-12-25T08:13:35.346Z,9.75
2022-12-25T08:16:04.883Z,8.48
2022-12-25T08:18:32.198Z,5.45
2022-12-25T08:21:10.619Z,6.05
2022-12-25T08:23:39.701Z,8.02
2022-12-25T08:26:08.540Z,5.93
2022-12-25T08:28:35.877Z,7.72
2022-12-25T08:31:16.471Z,10.00
2022-12-25T08:33:43.948Z,4.72
2022-12-25T08:36:11.922Z,7.43
2022-12-25T08:38:39.341Z,9.02
2022-12-25T08:41:06.447Z,7.38
2022-12-25T08:43:33.429Z,6.05
2022-12-25T08:46:00.323Z,5.80
2022-12-25T08:48:28.145Z,4.68
2022-12-25T08:50:55.045Z,6.22
2022-12-25T08:53:22.503Z,5.70
2022-12-25T08:55:49.771Z,3.42
2022-12-25T08:58:16.799Z,3.95
2022-12-25T09:00:43.737Z,4.97
2022-12-25T09:03:12.863Z,6.38
2022-12-25T09:05:39.796Z,3.53
2022-12-25T09:08:06.838Z,6.70
2022-12-25T09:10:36.772Z,4.28
2022-12-25T09:13:04.220Z,3.20
2022-12-25T09:15:31.457Z,5.25
2022-12-25T09:17:58.316Z,5.95
2022-12-25T09:20:25.261Z,3.88
2022-12-25T09:22:52.074Z,3.70
2022-12-25T09:25:18.933Z,3.75
2022-12-25T09:27:45.779Z,4.78
2022-12-25T09:30:13.012Z,4.15
2022-12-25T09:32:40.409Z,3.65
2022-12-25T09:35:08.805Z,2.35
2022-12-25T09:37:35.922Z,4.88
2022-12-25T09:40:03.153Z,7.60
2022-12-25T09:42:31.575Z,3.90
2022-12-25T09:45:02.059Z,7.93
2022-12-25T09:47:30.810Z,9.52
2022-12-25T09:50:03.440Z,6.35
2022-12-25T09:52:35.947Z,4.28
2022-12-25T09:55:24.367Z,7.78
2022-12-25T09:57:56.271Z,5.47
2022-12-25T10:00:25.861Z,4.38
2022-12-25T10:03:19.333Z,8.82
2022-12-25T10:08:31.170Z,9.30
2022-12-25T10:11:16.761Z,5.10
2022-12-25T10:14:06.342Z,7.05
2022-12-25T10:16:39.061Z,8.68
2022-12-25T10:19:10.192Z,9.43
2022-12-25T10:21:37.461Z,5.40
2022-12-25T10:24:24.801Z,2.50
2022-12-25T10:26:52.501Z,4.43
2022-12-25T10:29:20.048Z,3.25
2022-12-25T10:31:49.950Z,5.32
2022-12-25T10:34:17.642Z,3.60
2022-12-25T10:36:46.335Z,5.70
2022-12-25T10:39:18.155Z,4.85
2022-12-25T10:42:01.067Z,6.38
2022-12-25T10:44:28.013Z,3.67
2022-12-25T10:46:59.622Z,8.07
2022-12-25T10:49:37.919Z,6.10
2022-12-25T10:52:19.803Z,5.95
2022-12-25T10:54:46.633Z,5.30
2022-12-25T10:57:19.437Z,4.57
2022-12-25T10:59:49.067Z,6.13
2022-12-25T11:02:25.716Z,7.85
2022-12-25T11:05:08.486Z,6.35
2022-12-25T11:07:46.818Z,5.47
2022-12-25T11:10:17.006Z,3.78
2022-12-25T11:12:45.868Z,5.50
2022-12-25T11:15:44.993Z,16.55
2022-12-25T11:18:27.504Z,12.25
2022-12-25T11:20:56.625Z,7.17
2022-12-25T11:23:25.489Z,4.22
2022-12-25T11:26:11.968Z,6.78
2022-12-25T11:28:40.392Z,9.90
2022-12-25T11:31:33.346Z,8.02
2022-12-25T11:34:05.780Z,8.20
2022-12-25T11:36:49.784Z,8.38
2022-12-25T11:39:29.780Z,9.25
2022-12-25T11:42:22.194Z,6.32
2022-12-25T11:45:02.481Z,4.00
2022-12-25T11:47:40.621Z,3.47
2022-12-25T11:50:46.463Z,6.70
2022-12-25T11:53:28.399Z,5.63
2022-12-25T11:56:06.520Z,3.95
2022-12-25T11:58:37.880Z,4.88
2022-12-25T12:01:16.749Z,5.97
2022-12-25T12:03:44.286Z,5.93
2022-12-25T12:06:30.911Z,7.72
2022-12-25T12:09:24.607Z,4.88
2022-12-25T12:12:01.963Z,3.22
2022-12-25T12:14:50.566Z,3.28
2022-12-25T12:17:18.461Z,2.60
2022-12-25T12:19:45.737Z,3.10
2022-12-25T12:22:23.478Z,5.47
2022-12-25T12:25:04.089Z,5.00
2022-12-25T12:27:40.627Z,5.57
2022-12-25T12:30:29.455Z,3.13
2022-12-25T12:33:01.134Z,1.70
2022-12-25T12:35:27.931Z,1.38
2022-12-25T12:38:03.700Z,1.65
2022-12-25T12:40:37.271Z,1.10
2022-12-25T12:43:05.907Z,1.83
2022-12-25T12:45:37.681Z,2.67
2022-12-25T12:48:22.277Z,2.47
2022-12-25T12:50:49.200Z,2.70
2022-12-25T12:53:30.029Z,1.92
2022-12-25T12:55:57.029Z,1.75
2022-12-25T12:58:33.238Z,1.63
2022-12-25T13:01:21.821Z,1.73
2022-12-25T13:04:33.459Z,1.65
2022-12-25T13:07:48.020Z,2.20
2022-12-25T13:10:34.338Z,2.45
2022-12-25T13:13:06.518Z,1.92
2022-12-25T13:15:35.140Z,6.03
2022-12-25T13:18:05.901Z,5.47
2022-12-25T13:20:58.153Z,3.47
2022-12-25T13:23:35.984Z,3.20
2022-12-25T13:26:12.930Z,2.55
2022-12-25T13:28:40.143Z,4.25
2022-12-25T13:31:22.813Z,3.08
2022-12-25T13:33:53.602Z,3.58
2022-12-25T13:36:20.468Z,5.05
2022-12-25T13:38:49.820Z,6.45
2022-12-25T13:41:40.080Z,8.18
2022-12-25T13:44:27.730Z,6.80
2022-12-25T13:46:54.703Z,5.25
2022-12-25T13:49:24.421Z,4.88
2022-12-25T13:51:51.552Z,7.82
2022-12-25T13:54:19.286Z,9.02
2022-12-25T13:56:52.055Z,7.75
2022-12-25T13:59:23.337Z,7.05
2022-12-25T14:01:51.290Z,5.65
2022-12-25T14:04:21.496Z,6.57
2022-12-25T14:06:49.112Z,8.10
2022-12-25T14:09:16.408Z,7.82
2022-12-25T14:11:50.213Z,10.43
2022-12-25T14:14:22.491Z,5.53
2022-12-25T14:16:51.348Z,9.18
2022-12-25T14:19:27.295Z,5.82
2022-12-25T14:22:10.819Z,8.57
2022-12-25T14:24:38.227Z,4.18
2022-12-25T14:27:21.128Z,5.82
2022-12-25T14:29:49.277Z,6.80
2022-12-25T14:32:24.578Z,5.50
2022-12-25T14:34:54.368Z,13.00
2022-12-25T14:37:29.572Z,7.85
2022-12-25T14:39:59.005Z,5.55
2022-12-25T14:42:29.302Z,8.52
2022-12-25T14:45:07.042Z,4.50
2022-12-25T14:47:49.973Z,6.72
2022-12-25T14:50:27.776Z,8.20
2022-12-25T14:52:54.775Z,9.88
2022-12-25T14:55:30.384Z,4.45
2022-12-25T14:58:01.590Z,4.55
2022-12-25T15:00:35.586Z,4.40
2022-12-25T15:03:05.215Z,7.00
2022-12-25T15:05:33.804Z,7.13
2022-12-25T15:08:02.074Z,8.25
2022-12-25T15:10:59.101Z,8.63
2022-12-25T15:13:19.205Z,7.72
2022-12-25T15:16:06.907Z,8.45
2022-12-25T15:18:38.660Z,6.20
2022-12-25T15:21:05.631Z,5.97
2022-12-25T15:23:32.704Z,8.52
2022-12-25T15:25:59.593Z,8.40
2022-12-25T15:28:26.453Z,5.20
2022-12-25T15:30:53.335Z,9.57
2022-12-25T15:33:20.282Z,5.93
2022-12-25T15:35:47.139Z,4.95
2022-12-25T15:38:14.153Z,8.27
2022-12-25T15:40:41.367Z,8.00
2022-12-25T15:43:38.729Z,8.05
2022-12-25T15:45:58.519Z,7.00
2022-12-25T15:48:25.343Z,7.95
2022-12-25T15:50:52.208Z,6.78
2022-12-25T15:53:19.032Z,8.15
2022-12-25T15:55:45.828Z,7.70
2022-12-25T15:58:15.143Z,7.65
2022-12-25T16:00:42.002Z,8.70
2022-12-25T16:03:08.931Z,6.40
2022-12-25T16:05:36.165Z,5.63
2022-12-25T16:08:02.963Z,8.00
2022-12-25T16:10:34.829Z,8.25
2022-12-25T16:13:05.179Z,7.93
2022-12-25T16:15:32.096Z,5.82
2022-12-25T16:17:58.966Z,6.57
2022-12-25T16:20:26.636Z,6.47
2022-12-25T16:22:53.527Z,6.47
2022-12-25T16:25:20.563Z,8.40
2022-12-25T16:27:47.586Z,6.70
2022-12-25T16:30:16.054Z,7.22
2022-12-25T16:32:43.185Z,12.70
2022-12-25T16:35:10.785Z,7.97
2022-12-25T16:37:37.655Z,7.43
2022-12-25T16:40:04.850Z,9.40
2022-12-25T16:42:31.680Z,5.70
2022-12-25T16:44:58.520Z,8.88
2022-12-25T16:47:25.862Z,6.38
2022-12-25T16:49:52.711Z,7.20
2022-12-25T16:52:19.612Z,8.65
2022-12-25T16:54:46.766Z,9.38
2022-12-25T16:57:14.298Z,9.82
2022-12-25T16:59:41.760Z,10.25
2022-12-25T17:02:20.188Z,9.02
2022-12-25T17:04:47.890Z,9.32
2022-12-25T17:07:15.664Z,7.50
2022-12-25T17:09:44.505Z,7.25
2022-12-25T17:12:11.709Z,8.18
2022-12-25T17:14:38.712Z,6.75
2022-12-25T17:17:05.814Z,8.00
2022-12-25T17:19:32.746Z,7.22
2022-12-25T17:22:00.112Z,7.10
2022-12-25T17:24:27.526Z,6.18
2022-12-25T17:26:54.536Z,6.28
2022-12-25T17:29:22.624Z,11.20
2022-12-25T17:31:50.488Z,10.18
2022-12-25T17:34:17.410Z,9.18
2022-12-25T17:36:44.262Z,7.53
2022-12-25T17:39:11.728Z,11.32
2022-12-25T17:41:38.806Z,9.65
2022-12-25T17:44:05.782Z,5.38
2022-12-25T17:46:32.734Z,9.80
2022-12-25T17:49:01.323Z,7.10
2022-12-25T17:51:29.478Z,7.57
2022-12-25T17:53:58.902Z,9.88
2022-12-25T17:56:26.241Z,6.65
2022-12-25T17:58:55.532Z,8.18
2022-12-25T18:01:23.626Z,6.25
2022-12-25T18:03:51.206Z,6.40
2022-12-25T18:06:20.507Z,4.85
2022-12-25T18:08:47.880Z,8.60
2022-12-25T18:11:21.392Z,7.47
2022-12-25T18:13:51.747Z,9.05
2022-12-25T18:16:20.591Z,9.20
2022-12-25T18:18:51.831Z,8.90
2022-12-25T18:21:21.155Z,5.73
2022-12-25T18:23:48.351Z,10.95
2022-12-25T18:26:15.374Z,7.78
2022-12-25T18:28:43.913Z,9.38
2022-12-25T18:31:16.867Z,6.50
2022-12-25T18:33:44.570Z,7.45
2022-12-25T18:36:13.703Z,5.10
2022-12-25T18:38:41.042Z,7.05
2022-12-25T18:41:09.280Z,14.43
2022-12-25T18:43:52.289Z,9.23
2022-12-25T18:46:24.012Z,7.25
2022-12-25T18:48:52.103Z,8.57
2022-12-25T18:51:19.367Z,9.35
2022-12-25T18:53:46.347Z,6.65
2022-12-25T18:56:15.654Z,8.20
2022-12-25T18:58:43.357Z,5.82
2022-12-25T19:01:21.817Z,6.75
2022-12-25T19:03:50.059Z,7.10
2022-12-25T19:06:25.207Z,9.63
2022-12-25T19:08:52.518Z,7.32
2022-12-25T19:11:19.793Z,6.93
2022-12-25T19:13:47.217Z,8.52
2022-12-25T19:16:15.047Z,6.38
2022-12-25T19:18:42.797Z,5.10
2022-12-25T19:21:10.189Z,10.25
2022-12-25T19:23:38.125Z,10.82
2022-12-25T19:26:06.180Z,6.28
2022-12-25T19:28:33.404Z,6.60
2022-12-25T19:31:01.174Z,5.93
2022-12-25T19:33:28.253Z,7.63
2022-12-25T19:36:02.514Z,6.15
2022-12-25T19:38:29.588Z,6.90
2022-12-25T19:41:02.230Z,7.15
2022-12-25T19:43:33.763Z,6.65
2022-12-25T19:46:01.779Z,8.73
2022-12-25T19:48:29.661Z,6.38
2022-12-25T19:50:56.542Z,7.57
2022-12-25T19:53:23.820Z,5.22
2022-12-25T19:55:54.161Z,5.50
2022-12-25T19:58:21.672Z,8.65
2022-12-25T20:01:02.986Z,4.85
2022-12-25T20:03:29.978Z,6.05
2022-12-25T20:05:57.087Z,7.85
2022-12-25T20:08:26.193Z,7.82
2022-12-25T20:10:53.025Z,8.52
2022-12-25T20:13:20.322Z,12.38
2022-12-25T20:15:47.301Z,9.35
2022-12-25T20:18:14.540Z,7.80
2022-12-25T20:20:41.342Z,6.35
2022-12-25T20:23:08.196Z,5.95
2022-12-25T20:25:38.764Z,6.93
2022-12-25T20:28:05.590Z,8.20
2022-12-25T20:30:32.447Z,7.65
2022-12-25T20:32:59.328Z,12.20
2022-12-25T20:35:26.166Z,9.93
2022-12-25T20:37:52.985Z,10.40
2022-12-25T20:40:19.816Z,8.60
2022-12-25T20:42:46.758Z,8.90
2022-12-25T20:45:13.594Z,8.27
2022-12-25T20:47:40.440Z,6.60
2022-12-25T20:50:07.808Z,9.48
2022-12-25T20:52:34.822Z,7.95
2022-12-25T20:55:01.650Z,7.30
2022-12-25T20:57:28.833Z,8.60
2022-12-25T20:59:55.622Z,10.30
2022-12-25T21:02:34.481Z,5.45
2022-12-25T21:05:03.785Z,7.03
2022-12-25T21:07:30.652Z,7.10
2022-12-25T21:09:57.468Z,10.65
2022-12-25T21:12:24.300Z,6.57
2022-12-25T21:14:51.409Z,6.80
2022-12-25T21:17:18.228Z,6.35
2022-12-25T21:19:45.089Z,8.25
2022-12-25T21:22:12.618Z,7.90
2022-12-25T21:24:39.592Z,6.15
2022-12-25T21:27:06.431Z,10.60
2022-12-25T21:29:33.337Z,7.97
2022-12-25T21:32:19.049Z,7.25
2022-12-25T21:34:46.118Z,7.38
2022-12-25T21:37:13.004Z,6.65
2022-12-25T21:39:39.972Z,6.25
2022-12-25T21:42:07.082Z,7.10
2022-12-25T21:44:34.427Z,7.38
2022-12-25T21:47:01.805Z,9.13
2022-12-25T21:49:47.190Z,8.85
2022-12-25T21:52:13.963Z,8.55
2022-12-25T21:54:40.911Z,6.38
2022-12-25T21:57:07.701Z,7.50
2022-12-25T21:59:34.919Z,6.22
2022-12-25T22:02:01.997Z,6.13
2022-12-25T22:04:28.942Z,6.90
2022-12-25T22:07:16.789Z,6.22
2022-12-25T22:09:45.173Z,8.30
2022-12-25T22:12:34.163Z,6.90
2022-12-25T22:15:09.874Z,7.63
2022-12-25T22:17:57.876Z,9.13
2022-12-25T22:20:30.848Z,6.97
2022-12-25T22:25:25.089Z,8.60
2022-12-25T22:27:52.687Z,6.78
2022-12-25T22:30:29.256Z,6.50
2022-12-25T22:32:56.413Z,6.20
2022-12-25T22:35:23.823Z,7.18
2022-12-25T22:37:51.403Z,6.05
2022-12-25T22:40:19.981Z,5.53
2022-12-25T22:42:47.002Z,6.63
2022-12-25T22:45:14.375Z,7.85
2022-12-25T22:47:41.850Z,5.28
2022-12-25T22:50:09.694Z,4.80
2022-12-25T22:52:37.078Z,5.57
2022-12-25T22:55:04.999Z,6.28
2022-12-25T22:57:32.022Z,7.95
2022-12-25T22:59:59.685Z,5.90
2022-12-25T23:02:26.965Z,5.30
2022-12-25T23:04:54.677Z,5.00
2022-12-25T23:07:21.519Z,6.28
2022-12-25T23:09:49.742Z,8.10
2022-12-25T23:12:35.543Z,8.80
2022-12-25T23:15:06.392Z,5.20
2022-12-25T23:17:52.365Z,6.07
2022-12-25T23:20:37.937Z,7.03
2022-12-25T23:23:26.505Z,4.43
2022-12-25T23:29:11.224Z,4.40
2022-12-25T23:31:39.900Z,3.92
2022-12-25T23:34:09.405Z,4.30
2022-12-25T23:36:36.690Z,7.95
2022-12-25T23:39:09.631Z,7.13
2022-12-25T23:41:41.668Z,7.57
2022-12-25T23:44:10.468Z,10.93
2022-12-25T23:46:38.764Z,5.18
2022-12-25T23:49:06.161Z,5.70
2022-12-25T23:51:35.597Z,8.80
2022-12-25T23:54:04.577Z,3.72
2022-12-25T23:56:31.583Z,4.03
2022-12-25T23:58:58.739Z,3.25
